메인 페이지
METAR-TAF:

METAR-TAF

공항 :

새스커툰, 서스캐처원, 캐나다

위도: 52-10N, 경도: 106-41W, 고도: 501m

현재 날씨관측

예보는 56분 전, 04:00시(UTC)에 발표되었습니다.
남서7kt
온도 -7°C
습도 93%
기압 1001 hPa
시정: 24.1km
맑음

METAR: CYXE 200400Z 22007KT 15SM SKC M07/M08 A2956 RMK SLP043

시각: 22:56 (04:56 UTC)

예보

예보는 5 시간 18분 전, 23:38시(UTC)에 발표되었습니다.
예보 대상 시간: 20일 00시부터 20일 24시까지 (UTC)
서남서6kt
시정: 10km
고도 30000ft 상공 구름 조금
20일 0600시부터 (UTC)
남서6kt
시정: 10km
고도 6000ft 상공 구름 보통
고도 10000ft 상공 구름 많음
일시적
20일 06시부터 20일 10시까지 (UTC)
고도 1500ft 상공 구름 조금
고도 4000ft 상공 구름 많음
고도 10000ft 상공 구름 많음
20일 1000시부터 (UTC)
남서6kt
시정: 10km
고도 1000ft 상공 구름 조금
고도 6000ft 상공 구름 보통
확률 30%
20일 10시부터 20일 18시까지 (UTC)
시정: 0.8km
고도 200ft 상공
어는 안개
20일 2100시부터 (UTC)
북동6kt
시정: 10km
고도 800ft 상공 구름 보통

TAF: CYXE 192338Z 2000/2024 24006KT P6SM FEW300 FM200600 23006KT P6SM SCT060 BKN100 TEMPO 2006/2010 FEW015 BKN040 BKN100 FM201000 23006KT P6SM FEW010 SCT060 PROB30 2010/2018 1/2SM FZFG VV002 FM202100 05006KT P6SM SCT008 RMK NXT FCST BY 200600Z

4,000개 이상의 공항 관측 자료 및 예보 (METAR 및 TAF 보고).

지도상에서 검색 가능한 기상관측소가 노란 점과 빨간 점으로 표시되어 있습니다.

기상관측소 명을 보려면 표시 위로 마우스를 이동하세요.

날씨 관측과 예보를 보려면 클릭하세요.

지도 변경 : 확대하려면 엑스 표시가 있는 녹색 버튼, 축소하려면 빼기 표시가 있는 녹색 버튼, 다음 페이지의 지도를 보려면 녹색 화살표를 클릭하세요.


METAR-TAF: